CheckWX is a tool to help pilots better visualize weather data.  It is not intended as a substitute for an official pre-flight weather briefing.

17:55:33 UTC

KNQA METAR
Millington Regional Jetport Airport
Millington, Tennessee, USA
Current

1 hour ago

KNQA 181650Z 23009KT 10SM SCT027 32/26 A3002
Observed
Jul-18 @ 16:50 UTC
Wind
  • 230° at 9 KTS
Visibility
10 SM
Flight Rules
VFR
Cloud Levels
  • Scattered at 2,700' AGL
Temperature
32°C / 90°F
Dewpoint
26°C / 79°F
Heat Index
42°C / 107°F
Humidity
71%
Altimeter
30.02" Hg
Pressure
1016.62 hPa
Previous

2 hours ago

KNQA 181550Z 24007KT 10SM CLR 30/25 A3003
Observed
Jul-18 @ 15:50 UTC
Wind
  • 240° at 7 KTS
Visibility
10 SM
Flight Rules
VFR
Cloud Levels
  • Clear skies
Temperature
30°C / 86°F
Dewpoint
25°C / 77°F
Heat Index
36°C / 97°F
Humidity
75%
Altimeter
30.03" Hg
Pressure
1016.92 hPa
Previous

3 hours ago

KNQA 181450Z 21006KT 10SM CLR 28/25 A3003
Observed
Jul-18 @ 14:50 UTC
Wind
  • 210° at 6 KTS
Visibility
10 SM
Flight Rules
VFR
Cloud Levels
  • Clear skies
Temperature
28°C / 82°F
Dewpoint
25°C / 77°F
Heat Index
32°C / 90°F
Humidity
84%
Altimeter
30.03" Hg
Pressure
1016.92 hPa